Pittsburgh, Pennsylvania
Traffic Map
Current Weather Conditions
Pittsburgh, Pennsylvania
Overcast
Overcast
-5°
Feels Like: -9°
Wind Chill: -9° Ceiling: 3400
Heat Index: -5° Visibility: 10mi
Dew Point: -10° Wind: 6mph
Humidity: 68% Direction: 190° (S)
Pressure: 30.41in Gusts: 0mph
Raw Report DataKAGC 110253Z 19005KT 10SM OVC034 M05/M10 A3041 RMK AO2 SLP321 T10501100 58010
Traffic Incident Summary
Active as of:
Severity:
Category:
InformationThere was an issue retrieving the traffic information for this location. Please try a different location or try again shortly.
Advertisements
Track Severe Weather on mobile